sensor_id;sensor_type;location;lat;lon;timestamp;P1;durP1;ratioP1;P2;durP2;ratioP2
32932;SDS011;19444;50.518;10.870;2023-02-10T00:02:13;23.70;;;12.30;;
32932;SDS011;19444;50.518;10.870;2023-02-10T00:05:09;26.17;;;12.88;;
32932;SDS011;19444;50.518;10.870;2023-02-10T00:08:06;30.63;;;12.55;;
32932;SDS011;19444;50.518;10.870;2023-02-10T00:11:04;25.65;;;12.07;;
32932;SDS011;19444;50.518;10.870;2023-02-10T00:14:05;28.02;;;12.85;;
32932;SDS011;19444;50.518;10.870;2023-02-10T00:17:02;29.73;;;13.45;;
32932;SDS011;19444;50.518;10.870;2023-02-10T00:19:59;31.23;;;13.68;;
32932;SDS011;19444;50.518;10.870;2023-02-10T00:22:56;28.02;;;12.43;;
32932;SDS011;19444;50.518;10.870;2023-02-10T00:25:53;27.23;;;12.43;;
32932;SDS011;19444;50.518;10.870;2023-02-10T00:28:49;26.27;;;13.05;;
32932;SDS011;19444;50.518;10.870;2023-02-10T00:31:47;27.83;;;12.98;;
32932;SDS011;19444;50.518;10.870;2023-02-10T00:34:44;21.08;;;11.35;;
32932;SDS011;19444;50.518;10.870;2023-02-10T00:37:41;22.02;;;11.15;;
32932;SDS011;19444;50.518;10.870;2023-02-10T00:40:38;23.10;;;10.90;;
32932;SDS011;19444;50.518;10.870;2023-02-10T00:43:35;26.08;;;12.52;;
32932;SDS011;19444;50.518;10.870;2023-02-10T00:46:36;26.40;;;12.20;;
32932;SDS011;19444;50.518;10.870;2023-02-10T00:49:33;29.55;;;14.30;;
32932;SDS011;19444;50.518;10.870;2023-02-10T00:52:30;26.00;;;13.18;;
32932;SDS011;19444;50.518;10.870;2023-02-10T00:55:27;28.73;;;13.68;;
32932;SDS011;19444;50.518;10.870;2023-02-10T00:58:23;34.90;;;15.35;;
32932;SDS011;19444;50.518;10.870;2023-02-10T01:01:21;32.17;;;14.38;;
32932;SDS011;19444;50.518;10.870;2023-02-10T01:04:18;29.88;;;14.40;;
32932;SDS011;19444;50.518;10.870;2023-02-10T01:07:14;29.60;;;15.52;;
32932;SDS011;19444;50.518;10.870;2023-02-10T01:10:11;31.85;;;15.07;;
32932;SDS011;19444;50.518;10.870;2023-02-10T01:13:09;28.92;;;13.57;;
32932;SDS011;19444;50.518;10.870;2023-02-10T01:16:08;25.05;;;13.27;;
32932;SDS011;19444;50.518;10.870;2023-02-10T01:19:09;25.92;;;12.25;;
32932;SDS011;19444;50.518;10.870;2023-02-10T01:22:06;29.23;;;13.73;;
32932;SDS011;19444;50.518;10.870;2023-02-10T01:25:03;33.50;;;14.65;;
32932;SDS011;19444;50.518;10.870;2023-02-10T01:28:01;28.85;;;14.23;;
32932;SDS011;19444;50.518;10.870;2023-02-10T01:31:04;31.58;;;16.17;;
32932;SDS011;19444;50.518;10.870;2023-02-10T01:34:02;31.15;;;13.85;;
32932;SDS011;19444;50.518;10.870;2023-02-10T01:36:59;32.35;;;15.07;;
32932;SDS011;19444;50.518;10.870;2023-02-10T01:39:56;31.92;;;15.13;;
32932;SDS011;19444;50.518;10.870;2023-02-10T01:42:53;38.88;;;15.75;;
32932;SDS011;19444;50.518;10.870;2023-02-10T01:45:50;30.65;;;14.88;;
32932;SDS011;19444;50.518;10.870;2023-02-10T01:48:47;32.38;;;13.10;;
32932;SDS011;19444;50.518;10.870;2023-02-10T01:51:47;30.25;;;13.48;;
32932;SDS011;19444;50.518;10.870;2023-02-10T01:54:56;28.73;;;13.88;;
32932;SDS011;19444;50.518;10.870;2023-02-10T01:58:05;29.35;;;13.77;;
32932;SDS011;19444;50.518;10.870;2023-02-10T02:01:06;33.67;;;14.48;;
32932;SDS011;19444;50.518;10.870;2023-02-10T02:04:03;38.40;;;14.70;;
32932;SDS011;19444;50.518;10.870;2023-02-10T02:07:00;33.08;;;15.45;;
32932;SDS011;19444;50.518;10.870;2023-02-10T02:09:57;32.58;;;14.13;;
32932;SDS011;19444;50.518;10.870;2023-02-10T02:27:04;31.92;;;13.98;;
32932;SDS011;19444;50.518;10.870;2023-02-10T02:30:44;32.92;;;14.75;;
32932;SDS011;19444;50.518;10.870;2023-02-10T02:34:03;35.28;;;15.90;;
32932;SDS011;19444;50.518;10.870;2023-02-10T02:37:29;31.27;;;14.53;;
32932;SDS011;19444;50.518;10.870;2023-02-10T02:40:32;33.88;;;14.73;;
32932;SDS011;19444;50.518;10.870;2023-02-10T02:43:29;35.35;;;15.30;;
32932;SDS011;19444;50.518;10.870;2023-02-10T02:49:56;30.73;;;13.75;;
32932;SDS011;19444;50.518;10.870;2023-02-10T02:56:25;35.45;;;15.25;;
32932;SDS011;19444;50.518;10.870;2023-02-10T02:59:33;36.17;;;15.07;;
32932;SDS011;19444;50.518;10.870;2023-02-10T03:02:49;37.60;;;15.80;;
32932;SDS011;19444;50.518;10.870;2023-02-10T03:05:49;34.33;;;14.57;;
32932;SDS011;19444;50.518;10.870;2023-02-10T03:08:45;36.38;;;15.60;;
32932;SDS011;19444;50.518;10.870;2023-02-10T03:11:43;37.83;;;16.95;;
32932;SDS011;19444;50.518;10.870;2023-02-10T03:14:40;40.95;;;17.05;;
32932;SDS011;19444;50.518;10.870;2023-02-10T03:17:37;41.13;;;17.33;;
32932;SDS011;19444;50.518;10.870;2023-02-10T03:20:34;39.85;;;17.75;;
32932;SDS011;19444;50.518;10.870;2023-02-10T03:23:31;37.45;;;17.45;;
32932;SDS011;19444;50.518;10.870;2023-02-10T03:26:28;35.03;;;16.67;;
32932;SDS011;19444;50.518;10.870;2023-02-10T03:29:26;37.55;;;16.67;;
32932;SDS011;19444;50.518;10.870;2023-02-10T03:32:23;35.80;;;16.10;;
32932;SDS011;19444;50.518;10.870;2023-02-10T03:35:20;37.40;;;16.75;;
32932;SDS011;19444;50.518;10.870;2023-02-10T03:38:17;36.70;;;16.05;;
32932;SDS011;19444;50.518;10.870;2023-02-10T03:41:13;37.95;;;15.82;;
32932;SDS011;19444;50.518;10.870;2023-02-10T03:44:10;35.83;;;16.95;;
32932;SDS011;19444;50.518;10.870;2023-02-10T03:47:07;40.92;;;16.35;;
32932;SDS011;19444;50.518;10.870;2023-02-10T03:50:04;37.28;;;16.42;;
32932;SDS011;19444;50.518;10.870;2023-02-10T03:53:02;35.22;;;15.70;;
32932;SDS011;19444;50.518;10.870;2023-02-10T03:55:59;36.50;;;16.85;;
32932;SDS011;19444;50.518;10.870;2023-02-10T03:58:59;36.38;;;17.45;;
32932;SDS011;19444;50.518;10.870;2023-02-10T04:01:57;35.05;;;16.67;;
32932;SDS011;19444;50.518;10.870;2023-02-10T04:04:54;38.67;;;17.13;;
32932;SDS011;19444;50.518;10.870;2023-02-10T04:07:51;42.75;;;17.52;;
32932;SDS011;19444;50.518;10.870;2023-02-10T04:10:48;36.63;;;17.08;;
32932;SDS011;19444;50.518;10.870;2023-02-10T04:13:45;41.30;;;18.30;;
32932;SDS011;19444;50.518;10.870;2023-02-10T04:16:42;39.65;;;17.17;;
32932;SDS011;19444;50.518;10.870;2023-02-10T04:19:39;41.95;;;18.05;;
32932;SDS011;19444;50.518;10.870;2023-02-10T04:22:35;39.95;;;17.75;;
32932;SDS011;19444;50.518;10.870;2023-02-10T04:25:33;38.28;;;19.38;;
32932;SDS011;19444;50.518;10.870;2023-02-10T04:28:29;37.90;;;18.23;;
32932;SDS011;19444;50.518;10.870;2023-02-10T04:31:26;38.95;;;17.80;;
32932;SDS011;19444;50.518;10.870;2023-02-10T04:34:23;36.58;;;17.23;;
32932;SDS011;19444;50.518;10.870;2023-02-10T04:37:21;40.75;;;18.02;;
32932;SDS011;19444;50.518;10.870;2023-02-10T04:40:18;41.50;;;17.83;;
32932;SDS011;19444;50.518;10.870;2023-02-10T04:43:15;46.50;;;19.45;;
32932;SDS011;19444;50.518;10.870;2023-02-10T04:46:12;41.83;;;17.83;;
32932;SDS011;19444;50.518;10.870;2023-02-10T04:49:09;42.70;;;18.70;;
32932;SDS011;19444;50.518;10.870;2023-02-10T04:52:06;38.08;;;17.23;;
32932;SDS011;19444;50.518;10.870;2023-02-10T04:55:03;42.00;;;17.83;;
32932;SDS011;19444;50.518;10.870;2023-02-10T04:58:00;43.40;;;17.55;;
32932;SDS011;19444;50.518;10.870;2023-02-10T05:00:57;44.67;;;18.30;;
32932;SDS011;19444;50.518;10.870;2023-02-10T05:03:54;42.80;;;18.73;;
32932;SDS011;19444;50.518;10.870;2023-02-10T05:06:51;40.83;;;18.98;;
32932;SDS011;19444;50.518;10.870;2023-02-10T05:09:49;44.13;;;20.77;;
32932;SDS011;19444;50.518;10.870;2023-02-10T05:12:46;39.13;;;19.40;;
32932;SDS011;19444;50.518;10.870;2023-02-10T05:15:43;41.45;;;18.27;;
32932;SDS011;19444;50.518;10.870;2023-02-10T05:18:41;39.53;;;18.55;;
32932;SDS011;19444;50.518;10.870;2023-02-10T05:21:39;40.92;;;18.08;;
32932;SDS011;19444;50.518;10.870;2023-02-10T05:24:35;38.90;;;17.00;;
32932;SDS011;19444;50.518;10.870;2023-02-10T05:27:32;43.83;;;18.88;;
32932;SDS011;19444;50.518;10.870;2023-02-10T05:30:30;44.10;;;19.73;;
32932;SDS011;19444;50.518;10.870;2023-02-10T05:33:27;42.45;;;20.02;;
32932;SDS011;19444;50.518;10.870;2023-02-10T05:36:24;42.13;;;19.67;;
32932;SDS011;19444;50.518;10.870;2023-02-10T05:39:23;41.95;;;19.67;;
32932;SDS011;19444;50.518;10.870;2023-02-10T05:42:20;43.83;;;20.20;;
32932;SDS011;19444;50.518;10.870;2023-02-10T05:45:17;38.60;;;19.20;;
32932;SDS011;19444;50.518;10.870;2023-02-10T05:48:14;41.80;;;19.38;;
32932;SDS011;19444;50.518;10.870;2023-02-10T05:51:11;43.47;;;19.05;;
32932;SDS011;19444;50.518;10.870;2023-02-10T05:54:08;41.65;;;18.40;;
32932;SDS011;19444;50.518;10.870;2023-02-10T05:57:05;41.85;;;18.90;;
32932;SDS011;19444;50.518;10.870;2023-02-10T06:00:03;41.05;;;18.13;;
32932;SDS011;19444;50.518;10.870;2023-02-10T06:03:01;39.92;;;19.83;;
32932;SDS011;19444;50.518;10.870;2023-02-10T06:05:58;41.63;;;19.67;;
32932;SDS011;19444;50.518;10.870;2023-02-10T06:08:55;43.17;;;19.67;;
32932;SDS011;19444;50.518;10.870;2023-02-10T06:11:53;42.67;;;19.70;;
32932;SDS011;19444;50.518;10.870;2023-02-10T06:14:50;47.08;;;21.08;;
32932;SDS011;19444;50.518;10.870;2023-02-10T06:17:47;40.58;;;19.63;;
32932;SDS011;19444;50.518;10.870;2023-02-10T06:20:45;43.25;;;21.50;;
32932;SDS011;19444;50.518;10.870;2023-02-10T06:23:44;49.33;;;23.00;;
32932;SDS011;19444;50.518;10.870;2023-02-10T06:26:46;51.83;;;25.48;;
32932;SDS011;19444;50.518;10.870;2023-02-10T06:29:43;50.90;;;22.60;;
32932;SDS011;19444;50.518;10.870;2023-02-10T06:32:40;40.35;;;18.63;;
32932;SDS011;19444;50.518;10.870;2023-02-10T06:35:37;42.47;;;19.83;;
32932;SDS011;19444;50.518;10.870;2023-02-10T06:38:34;40.53;;;20.15;;
32932;SDS011;19444;50.518;10.870;2023-02-10T06:41:32;39.08;;;19.52;;
32932;SDS011;19444;50.518;10.870;2023-02-10T06:44:30;45.70;;;20.33;;
32932;SDS011;19444;50.518;10.870;2023-02-10T06:47:27;46.30;;;20.90;;
32932;SDS011;19444;50.518;10.870;2023-02-10T06:50:23;49.38;;;21.15;;
32932;SDS011;19444;50.518;10.870;2023-02-10T06:53:20;43.30;;;21.95;;
32932;SDS011;19444;50.518;10.870;2023-02-10T06:56:17;43.58;;;20.95;;
32932;SDS011;19444;50.518;10.870;2023-02-10T06:59:14;48.20;;;23.25;;
32932;SDS011;19444;50.518;10.870;2023-02-10T07:02:11;50.65;;;23.40;;
32932;SDS011;19444;50.518;10.870;2023-02-10T07:05:09;44.22;;;21.65;;
32932;SDS011;19444;50.518;10.870;2023-02-10T07:08:07;48.63;;;24.55;;
32932;SDS011;19444;50.518;10.870;2023-02-10T07:11:04;46.25;;;23.88;;
32932;SDS011;19444;50.518;10.870;2023-02-10T07:14:01;49.22;;;22.20;;
32932;SDS011;19444;50.518;10.870;2023-02-10T07:16:58;41.92;;;21.27;;
32932;SDS011;19444;50.518;10.870;2023-02-10T07:19:55;45.22;;;20.52;;
32932;SDS011;19444;50.518;10.870;2023-02-10T07:22:52;47.70;;;22.85;;
32932;SDS011;19444;50.518;10.870;2023-02-10T07:25:49;47.33;;;22.25;;
32932;SDS011;19444;50.518;10.870;2023-02-10T07:28:46;49.75;;;23.33;;
32932;SDS011;19444;50.518;10.870;2023-02-10T07:31:43;48.72;;;23.35;;
32932;SDS011;19444;50.518;10.870;2023-02-10T07:34:40;48.22;;;22.08;;
32932;SDS011;19444;50.518;10.870;2023-02-10T07:37:37;45.83;;;20.98;;
32932;SDS011;19444;50.518;10.870;2023-02-10T07:40:34;51.33;;;22.08;;
32932;SDS011;19444;50.518;10.870;2023-02-10T07:43:31;51.53;;;22.17;;
32932;SDS011;19444;50.518;10.870;2023-02-10T07:46:29;44.20;;;21.55;;
32932;SDS011;19444;50.518;10.870;2023-02-10T07:49:26;45.30;;;21.98;;
32932;SDS011;19444;50.518;10.870;2023-02-10T07:52:24;48.75;;;22.50;;
32932;SDS011;19444;50.518;10.870;2023-02-10T07:55:21;52.15;;;24.30;;
32932;SDS011;19444;50.518;10.870;2023-02-10T07:58:18;46.97;;;23.90;;
32932;SDS011;19444;50.518;10.870;2023-02-10T08:01:15;50.10;;;24.85;;
32932;SDS011;19444;50.518;10.870;2023-02-10T08:04:13;49.67;;;23.35;;
32932;SDS011;19444;50.518;10.870;2023-02-10T08:07:10;46.70;;;22.70;;
32932;SDS011;19444;50.518;10.870;2023-02-10T08:10:07;47.00;;;23.15;;
32932;SDS011;19444;50.518;10.870;2023-02-10T08:13:04;45.30;;;22.67;;
32932;SDS011;19444;50.518;10.870;2023-02-10T08:16:05;51.80;;;25.30;;
32932;SDS011;19444;50.518;10.870;2023-02-10T08:19:04;56.53;;;25.55;;
32932;SDS011;19444;50.518;10.870;2023-02-10T08:22:01;48.95;;;23.30;;
32932;SDS011;19444;50.518;10.870;2023-02-10T08:25:02;48.17;;;24.88;;
32932;SDS011;19444;50.518;10.870;2023-02-10T08:28:00;45.55;;;23.30;;
32932;SDS011;19444;50.518;10.870;2023-02-10T08:31:00;40.67;;;22.65;;
32932;SDS011;19444;50.518;10.870;2023-02-10T08:34:00;39.78;;;21.40;;
32932;SDS011;19444;50.518;10.870;2023-02-10T08:36:57;43.08;;;21.58;;
32932;SDS011;19444;50.518;10.870;2023-02-10T08:39:54;41.55;;;21.27;;
32932;SDS011;19444;50.518;10.870;2023-02-10T08:42:51;48.20;;;22.33;;
32932;SDS011;19444;50.518;10.870;2023-02-10T08:45:48;50.05;;;23.88;;
32932;SDS011;19444;50.518;10.870;2023-02-10T08:48:46;53.67;;;24.88;;
32932;SDS011;19444;50.518;10.870;2023-02-10T08:51:43;50.85;;;24.50;;
32932;SDS011;19444;50.518;10.870;2023-02-10T08:54:40;56.28;;;26.15;;
32932;SDS011;19444;50.518;10.870;2023-02-10T08:57:37;46.08;;;22.75;;
32932;SDS011;19444;50.518;10.870;2023-02-10T09:00:34;44.30;;;21.88;;
32932;SDS011;19444;50.518;10.870;2023-02-10T09:03:32;41.20;;;19.85;;
32932;SDS011;19444;50.518;10.870;2023-02-10T09:06:38;43.58;;;21.10;;
32932;SDS011;19444;50.518;10.870;2023-02-10T09:09:39;42.90;;;21.17;;
32932;SDS011;19444;50.518;10.870;2023-02-10T09:12:38;46.55;;;20.38;;
32932;SDS011;19444;50.518;10.870;2023-02-10T09:15:36;38.17;;;17.80;;
32932;SDS011;19444;50.518;10.870;2023-02-10T09:18:35;44.42;;;22.55;;
32932;SDS011;19444;50.518;10.870;2023-02-10T09:21:31;39.90;;;19.85;;
32932;SDS011;19444;50.518;10.870;2023-02-10T09:24:42;41.30;;;22.40;;
32932;SDS011;19444;50.518;10.870;2023-02-10T09:27:42;43.00;;;21.75;;
32932;SDS011;19444;50.518;10.870;2023-02-10T09:30:39;40.70;;;20.75;;
32932;SDS011;19444;50.518;10.870;2023-02-10T09:33:38;41.38;;;21.92;;
32932;SDS011;19444;50.518;10.870;2023-02-10T09:36:36;46.85;;;22.08;;
32932;SDS011;19444;50.518;10.870;2023-02-10T09:39:33;46.75;;;23.13;;
32932;SDS011;19444;50.518;10.870;2023-02-10T09:45:55;46.58;;;21.30;;
32932;SDS011;19444;50.518;10.870;2023-02-10T09:56:07;51.05;;;23.80;;
32932;SDS011;19444;50.518;10.870;2023-02-10T10:02:39;40.47;;;19.00;;
32932;SDS011;19444;50.518;10.870;2023-02-10T10:06:04;43.45;;;21.15;;
32932;SDS011;19444;50.518;10.870;2023-02-10T10:12:32;48.43;;;22.07;;
32932;SDS011;19444;50.518;10.870;2023-02-10T10:15:34;41.83;;;19.40;;
32932;SDS011;19444;50.518;10.870;2023-02-10T10:32:52;49.45;;;21.63;;
32932;SDS011;19444;50.518;10.870;2023-02-10T10:35:56;46.05;;;20.52;;
32932;SDS011;19444;50.518;10.870;2023-02-10T10:38:58;53.80;;;24.13;;
32932;SDS011;19444;50.518;10.870;2023-02-10T10:42:20;51.00;;;21.52;;
32932;SDS011;19444;50.518;10.870;2023-02-10T10:45:44;43.92;;;21.23;;
32932;SDS011;19444;50.518;10.870;2023-02-10T10:48:49;51.30;;;22.05;;
32932;SDS011;19444;50.518;10.870;2023-02-10T10:51:46;45.20;;;19.77;;
32932;SDS011;19444;50.518;10.870;2023-02-10T10:54:44;47.30;;;22.88;;
32932;SDS011;19444;50.518;10.870;2023-02-10T10:57:41;54.38;;;24.33;;
32932;SDS011;19444;50.518;10.870;2023-02-10T11:00:48;54.53;;;25.00;;
32932;SDS011;19444;50.518;10.870;2023-02-10T11:03:50;53.85;;;23.60;;
32932;SDS011;19444;50.518;10.870;2023-02-10T11:07:09;50.03;;;22.58;;
32932;SDS011;19444;50.518;10.870;2023-02-10T11:10:20;51.95;;;25.42;;
32932;SDS011;19444;50.518;10.870;2023-02-10T11:13:50;51.85;;;23.60;;
32932;SDS011;19444;50.518;10.870;2023-02-10T11:16:52;49.58;;;21.98;;
32932;SDS011;19444;50.518;10.870;2023-02-10T11:20:00;44.28;;;22.02;;
32932;SDS011;19444;50.518;10.870;2023-02-10T11:23:14;54.58;;;24.23;;
32932;SDS011;19444;50.518;10.870;2023-02-10T11:26:18;51.33;;;22.35;;
32932;SDS011;19444;50.518;10.870;2023-02-10T11:29:18;48.97;;;22.65;;
32932;SDS011;19444;50.518;10.870;2023-02-10T11:32:19;49.40;;;24.75;;
32932;SDS011;19444;50.518;10.870;2023-02-10T11:35:27;49.63;;;23.70;;
32932;SDS011;19444;50.518;10.870;2023-02-10T11:38:27;54.38;;;25.77;;
32932;SDS011;19444;50.518;10.870;2023-02-10T11:41:28;49.45;;;25.98;;
32932;SDS011;19444;50.518;10.870;2023-02-10T11:44:28;57.83;;;28.30;;
32932;SDS011;19444;50.518;10.870;2023-02-10T11:47:29;64.25;;;29.63;;
32932;SDS011;19444;50.518;10.870;2023-02-10T11:50:30;61.25;;;30.38;;
32932;SDS011;19444;50.518;10.870;2023-02-10T11:53:31;54.13;;;24.80;;
32932;SDS011;19444;50.518;10.870;2023-02-10T11:56:38;48.42;;;23.83;;
32932;SDS011;19444;50.518;10.870;2023-02-10T12:00:15;48.53;;;22.30;;
32932;SDS011;19444;50.518;10.870;2023-02-10T12:03:40;50.95;;;22.90;;
32932;SDS011;19444;50.518;10.870;2023-02-10T12:07:07;43.10;;;23.23;;
32932;SDS011;19444;50.518;10.870;2023-02-10T12:10:45;44.85;;;23.17;;
32932;SDS011;19444;50.518;10.870;2023-02-10T12:14:06;46.90;;;22.88;;
32932;SDS011;19444;50.518;10.870;2023-02-10T12:17:29;42.55;;;22.98;;
32932;SDS011;19444;50.518;10.870;2023-02-10T12:24:06;42.03;;;21.17;;
32932;SDS011;19444;50.518;10.870;2023-02-10T12:44:05;39.83;;;20.20;;
32932;SDS011;19444;50.518;10.870;2023-02-10T12:47:55;43.15;;;24.55;;
32932;SDS011;19444;50.518;10.870;2023-02-10T12:51:45;49.63;;;25.20;;
32932;SDS011;19444;50.518;10.870;2023-02-10T12:55:05;46.67;;;24.05;;
32932;SDS011;19444;50.518;10.870;2023-02-10T13:01:46;42.45;;;23.60;;
32932;SDS011;19444;50.518;10.870;2023-02-10T13:05:11;50.40;;;24.90;;
32932;SDS011;19444;50.518;10.870;2023-02-10T13:08:14;42.72;;;22.38;;
32932;SDS011;19444;50.518;10.870;2023-02-10T13:11:29;50.17;;;24.95;;
32932;SDS011;19444;50.518;10.870;2023-02-10T13:14:44;46.85;;;25.60;;
32932;SDS011;19444;50.518;10.870;2023-02-10T13:17:46;41.55;;;21.85;;
32932;SDS011;19444;50.518;10.870;2023-02-10T13:24:00;40.42;;;21.38;;
32932;SDS011;19444;50.518;10.870;2023-02-10T13:27:13;38.28;;;19.92;;
32932;SDS011;19444;50.518;10.870;2023-02-10T13:34:13;48.50;;;25.45;;
32932;SDS011;19444;50.518;10.870;2023-02-10T13:40:45;42.92;;;23.85;;
32932;SDS011;19444;50.518;10.870;2023-02-10T13:44:19;41.70;;;22.92;;
32932;SDS011;19444;50.518;10.870;2023-02-10T13:47:49;40.05;;;21.80;;
32932;SDS011;19444;50.518;10.870;2023-02-10T13:50:52;39.55;;;22.20;;
32932;SDS011;19444;50.518;10.870;2023-02-10T13:54:02;45.83;;;25.60;;
32932;SDS011;19444;50.518;10.870;2023-02-10T13:57:00;47.53;;;25.50;;
32932;SDS011;19444;50.518;10.870;2023-02-10T14:00:14;45.55;;;23.45;;
32932;SDS011;19444;50.518;10.870;2023-02-10T14:03:31;42.95;;;22.85;;
32932;SDS011;19444;50.518;10.870;2023-02-10T14:06:37;44.28;;;25.83;;
32932;SDS011;19444;50.518;10.870;2023-02-10T14:09:37;46.65;;;24.30;;
32932;SDS011;19444;50.518;10.870;2023-02-10T14:12:34;42.83;;;24.63;;
32932;SDS011;19444;50.518;10.870;2023-02-10T14:15:36;45.22;;;24.58;;
32932;SDS011;19444;50.518;10.870;2023-02-10T14:18:37;50.55;;;28.92;;
32932;SDS011;19444;50.518;10.870;2023-02-10T14:21:41;47.33;;;26.70;;
32932;SDS011;19444;50.518;10.870;2023-02-10T14:24:42;47.15;;;27.85;;
32932;SDS011;19444;50.518;10.870;2023-02-10T14:27:49;57.92;;;33.38;;
32932;SDS011;19444;50.518;10.870;2023-02-10T14:31:11;44.30;;;25.77;;
32932;SDS011;19444;50.518;10.870;2023-02-10T14:34:19;50.28;;;28.10;;
32932;SDS011;19444;50.518;10.870;2023-02-10T14:37:24;51.08;;;26.25;;
32932;SDS011;19444;50.518;10.870;2023-02-10T14:40:23;43.45;;;23.45;;
32932;SDS011;19444;50.518;10.870;2023-02-10T14:46:25;49.28;;;25.70;;
32932;SDS011;19444;50.518;10.870;2023-02-10T14:49:26;52.28;;;28.05;;
32932;SDS011;19444;50.518;10.870;2023-02-10T14:52:25;45.67;;;24.35;;
32932;SDS011;19444;50.518;10.870;2023-02-10T14:55:34;48.03;;;26.63;;
32932;SDS011;19444;50.518;10.870;2023-02-10T14:58:41;51.05;;;27.15;;
32932;SDS011;19444;50.518;10.870;2023-02-10T15:01:40;59.60;;;30.55;;
32932;SDS011;19444;50.518;10.870;2023-02-10T15:04:39;52.75;;;26.77;;
32932;SDS011;19444;50.518;10.870;2023-02-10T15:07:41;46.83;;;24.70;;
32932;SDS011;19444;50.518;10.870;2023-02-10T15:10:45;58.55;;;30.20;;
32932;SDS011;19444;50.518;10.870;2023-02-10T15:13:46;51.47;;;25.52;;
32932;SDS011;19444;50.518;10.870;2023-02-10T15:16:45;58.20;;;30.58;;
32932;SDS011;19444;50.518;10.870;2023-02-10T15:19:54;60.20;;;32.72;;
32932;SDS011;19444;50.518;10.870;2023-02-10T15:26:04;51.70;;;28.67;;
32932;SDS011;19444;50.518;10.870;2023-02-10T15:29:14;54.17;;;30.35;;
32932;SDS011;19444;50.518;10.870;2023-02-10T15:32:17;50.72;;;26.30;;
32932;SDS011;19444;50.518;10.870;2023-02-10T15:35:17;55.97;;;27.40;;
32932;SDS011;19444;50.518;10.870;2023-02-10T15:38:14;54.05;;;29.30;;
32932;SDS011;19444;50.518;10.870;2023-02-10T15:41:28;48.75;;;26.55;;
32932;SDS011;19444;50.518;10.870;2023-02-10T15:44:34;59.05;;;29.70;;
32932;SDS011;19444;50.518;10.870;2023-02-10T15:47:43;47.45;;;26.60;;
32932;SDS011;19444;50.518;10.870;2023-02-10T15:50:50;51.60;;;26.55;;
32932;SDS011;19444;50.518;10.870;2023-02-10T15:53:47;49.15;;;27.25;;
32932;SDS011;19444;50.518;10.870;2023-02-10T15:56:55;50.80;;;27.45;;
32932;SDS011;19444;50.518;10.870;2023-02-10T15:59:58;52.15;;;27.40;;
32932;SDS011;19444;50.518;10.870;2023-02-10T16:02:55;58.55;;;29.98;;
32932;SDS011;19444;50.518;10.870;2023-02-10T16:05:52;44.95;;;25.48;;
32932;SDS011;19444;50.518;10.870;2023-02-10T16:08:55;53.92;;;29.83;;
32932;SDS011;19444;50.518;10.870;2023-02-10T16:11:53;57.05;;;31.45;;
32932;SDS011;19444;50.518;10.870;2023-02-10T16:14:50;53.55;;;28.05;;
32932;SDS011;19444;50.518;10.870;2023-02-10T16:17:49;54.28;;;29.17;;
32932;SDS011;19444;50.518;10.870;2023-02-10T16:20:49;58.95;;;32.45;;
32932;SDS011;19444;50.518;10.870;2023-02-10T16:23:47;58.45;;;31.85;;
32932;SDS011;19444;50.518;10.870;2023-02-10T16:26:45;67.80;;;34.00;;
32932;SDS011;19444;50.518;10.870;2023-02-10T16:29:43;59.30;;;32.22;;
32932;SDS011;19444;50.518;10.870;2023-02-10T16:32:40;66.43;;;31.55;;
32932;SDS011;19444;50.518;10.870;2023-02-10T16:35:36;60.00;;;29.67;;
32932;SDS011;19444;50.518;10.870;2023-02-10T16:38:33;66.95;;;33.58;;
32932;SDS011;19444;50.518;10.870;2023-02-10T16:41:30;58.45;;;31.48;;
32932;SDS011;19444;50.518;10.870;2023-02-10T16:44:27;58.88;;;30.90;;
32932;SDS011;19444;50.518;10.870;2023-02-10T16:47:24;68.80;;;32.85;;
32932;SDS011;19444;50.518;10.870;2023-02-10T16:50:31;60.63;;;30.98;;
32932;SDS011;19444;50.518;10.870;2023-02-10T16:53:30;66.53;;;34.00;;
32932;SDS011;19444;50.518;10.870;2023-02-10T16:56:27;60.22;;;31.17;;
32932;SDS011;19444;50.518;10.870;2023-02-10T16:59:24;69.53;;;33.80;;
32932;SDS011;19444;50.518;10.870;2023-02-10T17:02:23;66.22;;;34.13;;
32932;SDS011;19444;50.518;10.870;2023-02-10T17:05:21;69.60;;;33.83;;
32932;SDS011;19444;50.518;10.870;2023-02-10T17:08:17;67.68;;;33.75;;
32932;SDS011;19444;50.518;10.870;2023-02-10T17:11:15;69.22;;;34.38;;
32932;SDS011;19444;50.518;10.870;2023-02-10T17:14:12;72.50;;;34.35;;
32932;SDS011;19444;50.518;10.870;2023-02-10T17:17:10;66.57;;;34.20;;
32932;SDS011;19444;50.518;10.870;2023-02-10T17:20:09;58.25;;;29.63;;
32932;SDS011;19444;50.518;10.870;2023-02-10T17:23:17;69.07;;;34.20;;
32932;SDS011;19444;50.518;10.870;2023-02-10T17:26:14;63.45;;;32.95;;
32932;SDS011;19444;50.518;10.870;2023-02-10T17:29:12;60.20;;;29.38;;
32932;SDS011;19444;50.518;10.870;2023-02-10T17:32:11;65.35;;;33.85;;
32932;SDS011;19444;50.518;10.870;2023-02-10T17:35:08;67.22;;;34.92;;
32932;SDS011;19444;50.518;10.870;2023-02-10T17:38:06;58.35;;;29.00;;
32932;SDS011;19444;50.518;10.870;2023-02-10T17:41:25;61.58;;;31.80;;
32932;SDS011;19444;50.518;10.870;2023-02-10T17:44:24;60.05;;;29.20;;
32932;SDS011;19444;50.518;10.870;2023-02-10T17:47:21;64.55;;;31.02;;
32932;SDS011;19444;50.518;10.870;2023-02-10T17:50:17;63.97;;;31.50;;
32932;SDS011;19444;50.518;10.870;2023-02-10T17:53:14;68.70;;;31.40;;
32932;SDS011;19444;50.518;10.870;2023-02-10T17:56:12;61.25;;;32.55;;
32932;SDS011;19444;50.518;10.870;2023-02-10T17:59:10;62.65;;;30.98;;
32932;SDS011;19444;50.518;10.870;2023-02-10T18:02:11;56.40;;;29.73;;
32932;SDS011;19444;50.518;10.870;2023-02-10T18:05:09;55.67;;;29.65;;
32932;SDS011;19444;50.518;10.870;2023-02-10T18:08:06;64.88;;;31.35;;
32932;SDS011;19444;50.518;10.870;2023-02-10T18:11:03;59.45;;;29.67;;
32932;SDS011;19444;50.518;10.870;2023-02-10T18:14:00;55.45;;;27.45;;
32932;SDS011;19444;50.518;10.870;2023-02-10T18:16:58;52.35;;;26.15;;
32932;SDS011;19444;50.518;10.870;2023-02-10T18:19:56;58.90;;;29.70;;
32932;SDS011;19444;50.518;10.870;2023-02-10T18:22:53;67.22;;;32.83;;
32932;SDS011;19444;50.518;10.870;2023-02-10T18:25:50;64.93;;;32.67;;
32932;SDS011;19444;50.518;10.870;2023-02-10T18:28:47;71.32;;;35.03;;
32932;SDS011;19444;50.518;10.870;2023-02-10T18:31:45;66.32;;;32.83;;
32932;SDS011;19444;50.518;10.870;2023-02-10T18:34:42;58.28;;;30.15;;
32932;SDS011;19444;50.518;10.870;2023-02-10T18:37:39;61.63;;;30.20;;
32932;SDS011;19444;50.518;10.870;2023-02-10T18:40:40;55.67;;;27.75;;
32932;SDS011;19444;50.518;10.870;2023-02-10T18:43:38;61.38;;;30.38;;
32932;SDS011;19444;50.518;10.870;2023-02-10T18:46:35;62.90;;;30.40;;
32932;SDS011;19444;50.518;10.870;2023-02-10T18:49:32;61.28;;;30.40;;
32932;SDS011;19444;50.518;10.870;2023-02-10T18:52:29;59.92;;;30.85;;
32932;SDS011;19444;50.518;10.870;2023-02-10T18:55:26;67.88;;;32.22;;
32932;SDS011;19444;50.518;10.870;2023-02-10T18:58:23;65.30;;;31.13;;